sensor_id;sensor_type;location;lat;lon;timestamp;P1;durP1;ratioP1;P2;durP2;ratioP2
16837;SDS011;19510;54.486;9.046;2022-10-18T03:37:52;20.20;;;6.10;;
16837;SDS011;19510;54.486;9.046;2022-10-18T03:40:20;15.07;;;6.03;;
16837;SDS011;19510;54.486;9.046;2022-10-18T03:42:48;13.45;;;5.57;;
16837;SDS011;19510;54.486;9.046;2022-10-18T03:45:14;15.85;;;5.32;;
16837;SDS011;19510;54.486;9.046;2022-10-18T03:47:39;17.58;;;5.13;;
16837;SDS011;19510;54.486;9.046;2022-10-18T03:50:05;16.42;;;4.68;;
16837;SDS011;19510;54.486;9.046;2022-10-18T03:52:32;19.00;;;5.97;;
16837;SDS011;19510;54.486;9.046;2022-10-18T03:54:58;14.30;;;5.13;;
16837;SDS011;19510;54.486;9.046;2022-10-18T03:57:23;18.55;;;6.38;;
16837;SDS011;19510;54.486;9.046;2022-10-18T03:59:52;17.70;;;5.22;;
16837;SDS011;19510;54.486;9.046;2022-10-18T04:02:17;14.40;;;5.57;;
16837;SDS011;19510;54.486;9.046;2022-10-18T04:04:43;17.00;;;5.68;;
16837;SDS011;19510;54.486;9.046;2022-10-18T04:07:08;22.05;;;5.85;;
16837;SDS011;19510;54.486;9.046;2022-10-18T04:09:36;21.58;;;5.45;;
16837;SDS011;19510;54.486;9.046;2022-10-18T04:12:02;12.23;;;5.15;;
16837;SDS011;19510;54.486;9.046;2022-10-18T04:14:27;14.52;;;6.05;;
16837;SDS011;19510;54.486;9.046;2022-10-18T04:16:53;14.05;;;5.82;;
16837;SDS011;19510;54.486;9.046;2022-10-18T04:19:19;16.38;;;5.65;;
16837;SDS011;19510;54.486;9.046;2022-10-18T04:21:44;16.23;;;6.63;;
16837;SDS011;19510;54.486;9.046;2022-10-18T04:24:10;12.60;;;6.18;;
16837;SDS011;19510;54.486;9.046;2022-10-18T04:26:35;18.42;;;6.65;;
16837;SDS011;19510;54.486;9.046;2022-10-18T04:29:01;18.20;;;7.13;;
16837;SDS011;19510;54.486;9.046;2022-10-18T04:31:30;19.40;;;6.07;;
16837;SDS011;19510;54.486;9.046;2022-10-18T04:33:56;17.05;;;6.38;;
16837;SDS011;19510;54.486;9.046;2022-10-18T04:36:23;22.02;;;6.55;;
16837;SDS011;19510;54.486;9.046;2022-10-18T04:38:49;25.35;;;6.90;;
16837;SDS011;19510;54.486;9.046;2022-10-18T04:41:14;17.55;;;7.05;;
16837;SDS011;19510;54.486;9.046;2022-10-18T04:43:40;18.02;;;6.80;;
16837;SDS011;19510;54.486;9.046;2022-10-18T04:46:08;25.92;;;8.68;;
16837;SDS011;19510;54.486;9.046;2022-10-18T04:48:36;21.20;;;7.07;;
16837;SDS011;19510;54.486;9.046;2022-10-18T04:51:01;24.38;;;6.72;;
16837;SDS011;19510;54.486;9.046;2022-10-18T04:53:27;23.70;;;7.53;;
16837;SDS011;19510;54.486;9.046;2022-10-18T04:55:52;22.33;;;7.72;;
16837;SDS011;19510;54.486;9.046;2022-10-18T04:58:18;21.15;;;7.13;;
16837;SDS011;19510;54.486;9.046;2022-10-18T05:00:44;26.50;;;6.97;;
16837;SDS011;19510;54.486;9.046;2022-10-18T05:03:11;17.45;;;5.78;;
16837;SDS011;19510;54.486;9.046;2022-10-18T05:05:38;20.30;;;6.30;;
16837;SDS011;19510;54.486;9.046;2022-10-18T05:08:04;18.77;;;5.63;;
16837;SDS011;19510;54.486;9.046;2022-10-18T05:10:32;18.25;;;6.35;;
16837;SDS011;19510;54.486;9.046;2022-10-18T05:13:00;21.95;;;6.50;;
16837;SDS011;19510;54.486;9.046;2022-10-18T05:15:28;22.77;;;7.55;;
16837;SDS011;19510;54.486;9.046;2022-10-18T05:17:54;19.10;;;6.68;;
16837;SDS011;19510;54.486;9.046;2022-10-18T05:20:19;23.83;;;7.47;;
16837;SDS011;19510;54.486;9.046;2022-10-18T05:22:45;17.25;;;6.78;;
16837;SDS011;19510;54.486;9.046;2022-10-18T05:25:11;27.50;;;7.38;;
16837;SDS011;19510;54.486;9.046;2022-10-18T05:27:37;17.50;;;6.47;;
16837;SDS011;19510;54.486;9.046;2022-10-18T05:30:02;21.42;;;7.88;;
16837;SDS011;19510;54.486;9.046;2022-10-18T05:32:28;29.08;;;6.93;;
16837;SDS011;19510;54.486;9.046;2022-10-18T05:34:54;21.13;;;6.28;;
16837;SDS011;19510;54.486;9.046;2022-10-18T05:37:20;16.95;;;7.00;;
16837;SDS011;19510;54.486;9.046;2022-10-18T05:39:45;19.45;;;7.05;;
16837;SDS011;19510;54.486;9.046;2022-10-18T05:42:11;20.75;;;7.18;;
16837;SDS011;19510;54.486;9.046;2022-10-18T05:44:37;22.10;;;8.05;;
16837;SDS011;19510;54.486;9.046;2022-10-18T05:47:03;27.83;;;8.10;;
16837;SDS011;19510;54.486;9.046;2022-10-18T05:49:28;20.58;;;8.00;;
16837;SDS011;19510;54.486;9.046;2022-10-18T05:51:54;19.20;;;7.93;;
16837;SDS011;19510;54.486;9.046;2022-10-18T05:54:20;15.38;;;6.63;;
16837;SDS011;19510;54.486;9.046;2022-10-18T05:56:45;21.10;;;7.90;;
16837;SDS011;19510;54.486;9.046;2022-10-18T05:59:11;22.95;;;7.35;;
16837;SDS011;19510;54.486;9.046;2022-10-18T06:01:37;23.67;;;7.60;;
16837;SDS011;19510;54.486;9.046;2022-10-18T06:04:04;25.58;;;7.68;;
16837;SDS011;19510;54.486;9.046;2022-10-18T06:06:30;20.48;;;7.40;;
16837;SDS011;19510;54.486;9.046;2022-10-18T06:08:56;24.83;;;7.65;;
16837;SDS011;19510;54.486;9.046;2022-10-18T06:11:22;22.05;;;8.05;;
16837;SDS011;19510;54.486;9.046;2022-10-18T06:13:49;18.88;;;7.07;;
16837;SDS011;19510;54.486;9.046;2022-10-18T06:16:16;22.48;;;7.78;;
16837;SDS011;19510;54.486;9.046;2022-10-18T06:18:51;28.60;;;6.68;;
16837;SDS011;19510;54.486;9.046;2022-10-18T06:21:18;24.92;;;7.25;;
16837;SDS011;19510;54.486;9.046;2022-10-18T06:23:50;25.92;;;7.22;;
16837;SDS011;19510;54.486;9.046;2022-10-18T06:26:17;20.75;;;6.05;;
16837;SDS011;19510;54.486;9.046;2022-10-18T06:28:43;18.40;;;5.45;;
16837;SDS011;19510;54.486;9.046;2022-10-18T06:31:09;22.08;;;6.43;;
16837;SDS011;19510;54.486;9.046;2022-10-18T06:33:35;20.85;;;5.43;;
16837;SDS011;19510;54.486;9.046;2022-10-18T06:36:12;27.30;;;7.13;;
16837;SDS011;19510;54.486;9.046;2022-10-18T06:38:39;20.20;;;5.75;;
16837;SDS011;19510;54.486;9.046;2022-10-18T06:41:05;16.58;;;5.40;;
16837;SDS011;19510;54.486;9.046;2022-10-18T06:43:31;20.40;;;5.40;;
16837;SDS011;19510;54.486;9.046;2022-10-18T06:45:59;16.42;;;4.95;;
16837;SDS011;19510;54.486;9.046;2022-10-18T06:48:27;21.25;;;5.38;;
16837;SDS011;19510;54.486;9.046;2022-10-18T06:50:57;15.60;;;4.53;;
16837;SDS011;19510;54.486;9.046;2022-10-18T06:53:31;17.85;;;5.22;;
16837;SDS011;19510;54.486;9.046;2022-10-18T06:56:02;22.52;;;4.60;;
16837;SDS011;19510;54.486;9.046;2022-10-18T06:58:31;18.88;;;4.65;;
16837;SDS011;19510;54.486;9.046;2022-10-18T07:01:03;13.45;;;3.88;;
16837;SDS011;19510;54.486;9.046;2022-10-18T07:03:34;15.63;;;4.18;;
16837;SDS011;19510;54.486;9.046;2022-10-18T07:06:03;23.58;;;4.60;;
16837;SDS011;19510;54.486;9.046;2022-10-18T07:08:31;15.90;;;4.22;;
16837;SDS011;19510;54.486;9.046;2022-10-18T07:10:56;18.90;;;4.45;;
16837;SDS011;19510;54.486;9.046;2022-10-18T07:13:22;22.98;;;4.13;;
16837;SDS011;19510;54.486;9.046;2022-10-18T07:18:34;21.40;;;3.85;;
16837;SDS011;19510;54.486;9.046;2022-10-18T07:21:07;22.95;;;4.05;;
16837;SDS011;19510;54.486;9.046;2022-10-18T07:23:35;16.75;;;3.80;;
16837;SDS011;19510;54.486;9.046;2022-10-18T07:26:03;16.45;;;3.45;;
16837;SDS011;19510;54.486;9.046;2022-10-18T07:28:41;18.45;;;3.53;;
16837;SDS011;19510;54.486;9.046;2022-10-18T07:31:11;14.18;;;3.75;;
16837;SDS011;19510;54.486;9.046;2022-10-18T07:48:06;15.95;;;4.63;;
16837;SDS011;19510;54.486;9.046;2022-10-18T07:54:06;12.80;;;3.47;;
16837;SDS011;19510;54.486;9.046;2022-10-18T08:00:44;14.30;;;3.53;;
16837;SDS011;19510;54.486;9.046;2022-10-18T08:03:10;14.68;;;3.20;;
16837;SDS011;19510;54.486;9.046;2022-10-18T08:12:27;15.45;;;3.15;;
16837;SDS011;19510;54.486;9.046;2022-10-18T08:14:53;13.15;;;3.05;;
16837;SDS011;19510;54.486;9.046;2022-10-18T08:17:19;19.33;;;3.20;;
16837;SDS011;19510;54.486;9.046;2022-10-18T08:22:58;10.35;;;2.63;;
16837;SDS011;19510;54.486;9.046;2022-10-18T08:25:44;10.45;;;2.97;;
16837;SDS011;19510;54.486;9.046;2022-10-18T08:28:19;11.43;;;2.75;;
16837;SDS011;19510;54.486;9.046;2022-10-18T08:34:31;10.25;;;2.47;;
16837;SDS011;19510;54.486;9.046;2022-10-18T08:37:13;18.67;;;2.83;;
16837;SDS011;19510;54.486;9.046;2022-10-18T08:40:17;18.38;;;2.58;;
16837;SDS011;19510;54.486;9.046;2022-10-18T09:05:25;9.38;;;1.80;;
16837;SDS011;19510;54.486;9.046;2022-10-18T09:19:45;18.85;;;2.38;;
16837;SDS011;19510;54.486;9.046;2022-10-18T09:33:18;9.10;;;1.73;;
16837;SDS011;19510;54.486;9.046;2022-10-18T09:36:01;9.80;;;1.88;;
16837;SDS011;19510;54.486;9.046;2022-10-18T09:38:30;13.27;;;1.50;;
16837;SDS011;19510;54.486;9.046;2022-10-18T09:41:11;8.13;;;1.77;;
16837;SDS011;19510;54.486;9.046;2022-10-18T09:46:28;11.93;;;1.60;;
16837;SDS011;19510;54.486;9.046;2022-10-18T09:51:35;10.23;;;1.63;;
16837;SDS011;19510;54.486;9.046;2022-10-18T09:54:09;9.25;;;1.75;;
16837;SDS011;19510;54.486;9.046;2022-10-18T09:59:35;11.73;;;2.65;;
16837;SDS011;19510;54.486;9.046;2022-10-18T10:02:07;11.75;;;2.20;;
16837;SDS011;19510;54.486;9.046;2022-10-18T10:04:37;9.27;;;1.50;;
16837;SDS011;19510;54.486;9.046;2022-10-18T10:07:05;11.00;;;1.52;;
16837;SDS011;19510;54.486;9.046;2022-10-18T10:09:43;8.05;;;1.70;;
16837;SDS011;19510;54.486;9.046;2022-10-18T10:12:23;12.98;;;2.13;;
16837;SDS011;19510;54.486;9.046;2022-10-18T10:17:51;9.75;;;2.10;;
16837;SDS011;19510;54.486;9.046;2022-10-18T10:20:43;5.03;;;1.38;;
16837;SDS011;19510;54.486;9.046;2022-10-18T10:25:53;6.60;;;1.38;;
16837;SDS011;19510;54.486;9.046;2022-10-18T10:28:34;14.55;;;1.55;;
16837;SDS011;19510;54.486;9.046;2022-10-18T10:36:32;7.18;;;1.60;;
16837;SDS011;19510;54.486;9.046;2022-10-18T10:39:32;12.95;;;1.52;;
16837;SDS011;19510;54.486;9.046;2022-10-18T10:41:52;6.13;;;1.70;;
16837;SDS011;19510;54.486;9.046;2022-10-18T10:44:20;11.88;;;1.80;;
16837;SDS011;19510;54.486;9.046;2022-10-18T10:46:48;11.65;;;1.33;;
16837;SDS011;19510;54.486;9.046;2022-10-18T10:49:22;4.32;;;0.82;;
16837;SDS011;19510;54.486;9.046;2022-10-18T10:51:56;9.60;;;1.33;;
16837;SDS011;19510;54.486;9.046;2022-10-18T10:54:25;8.88;;;1.40;;
16837;SDS011;19510;54.486;9.046;2022-10-18T10:56:57;7.38;;;1.58;;
16837;SDS011;19510;54.486;9.046;2022-10-18T11:04:45;6.03;;;1.23;;
16837;SDS011;19510;54.486;9.046;2022-10-18T11:07:32;8.43;;;1.80;;
16837;SDS011;19510;54.486;9.046;2022-10-18T11:12:41;4.82;;;1.40;;
16837;SDS011;19510;54.486;9.046;2022-10-18T11:17:41;8.43;;;1.30;;
16837;SDS011;19510;54.486;9.046;2022-10-18T11:20:44;5.93;;;1.23;;
16837;SDS011;19510;54.486;9.046;2022-10-18T11:23:16;10.30;;;1.65;;
16837;SDS011;19510;54.486;9.046;2022-10-18T11:42:47;9.35;;;1.60;;
16837;SDS011;19510;54.486;9.046;2022-10-18T11:56:39;4.93;;;1.20;;
16837;SDS011;19510;54.486;9.046;2022-10-18T11:59:26;10.00;;;1.77;;
16837;SDS011;19510;54.486;9.046;2022-10-18T12:04:57;8.10;;;1.20;;
16837;SDS011;19510;54.486;9.046;2022-10-18T12:07:26;8.02;;;1.38;;
16837;SDS011;19510;54.486;9.046;2022-10-18T12:09:57;10.68;;;1.60;;
16837;SDS011;19510;54.486;9.046;2022-10-18T12:12:35;16.13;;;2.15;;
16837;SDS011;19510;54.486;9.046;2022-10-18T12:15:16;6.10;;;1.38;;
16837;SDS011;19510;54.486;9.046;2022-10-18T12:17:49;4.13;;;2.53;;
16837;SDS011;19510;54.486;9.046;2022-10-18T12:20:30;4.85;;;0.90;;
16837;SDS011;19510;54.486;9.046;2022-10-18T12:23:01;7.75;;;2.08;;
16837;SDS011;19510;54.486;9.046;2022-10-18T12:25:29;7.13;;;1.48;;
16837;SDS011;19510;54.486;9.046;2022-10-18T12:30:41;9.73;;;1.23;;
16837;SDS011;19510;54.486;9.046;2022-10-18T12:33:18;10.18;;;1.73;;
16837;SDS011;19510;54.486;9.046;2022-10-18T12:38:59;7.15;;;1.60;;
16837;SDS011;19510;54.486;9.046;2022-10-18T12:41:28;6.75;;;1.33;;
16837;SDS011;19510;54.486;9.046;2022-10-18T12:44:05;4.95;;;0.75;;
16837;SDS011;19510;54.486;9.046;2022-10-18T12:46:51;6.95;;;1.52;;
16837;SDS011;19510;54.486;9.046;2022-10-18T12:49:29;8.65;;;1.58;;
16837;SDS011;19510;54.486;9.046;2022-10-18T12:52:00;7.97;;;1.85;;
16837;SDS011;19510;54.486;9.046;2022-10-18T12:56:58;8.73;;;1.23;;
16837;SDS011;19510;54.486;9.046;2022-10-18T13:09:41;4.50;;;1.00;;
16837;SDS011;19510;54.486;9.046;2022-10-18T13:14:58;10.65;;;1.20;;
16837;SDS011;19510;54.486;9.046;2022-10-18T13:17:52;9.43;;;1.48;;
16837;SDS011;19510;54.486;9.046;2022-10-18T13:20:28;9.30;;;1.40;;
16837;SDS011;19510;54.486;9.046;2022-10-18T13:25:53;5.35;;;1.45;;
16837;SDS011;19510;54.486;9.046;2022-10-18T13:28:43;7.88;;;1.90;;
16837;SDS011;19510;54.486;9.046;2022-10-18T13:31:33;7.03;;;1.75;;
16837;SDS011;19510;54.486;9.046;2022-10-18T13:36:44;5.68;;;1.08;;
16837;SDS011;19510;54.486;9.046;2022-10-18T13:39:33;9.25;;;1.30;;
16837;SDS011;19510;54.486;9.046;2022-10-18T13:44:26;7.70;;;1.40;;
16837;SDS011;19510;54.486;9.046;2022-10-18T14:05:50;3.20;;;0.93;;
16837;SDS011;19510;54.486;9.046;2022-10-18T14:11:05;3.83;;;1.00;;
16837;SDS011;19510;54.486;9.046;2022-10-18T14:13:42;9.40;;;1.38;;
16837;SDS011;19510;54.486;9.046;2022-10-18T14:19:03;8.13;;;1.38;;
16837;SDS011;19510;54.486;9.046;2022-10-18T14:21:47;10.38;;;1.83;;
16837;SDS011;19510;54.486;9.046;2022-10-18T14:24:22;8.43;;;1.40;;
16837;SDS011;19510;54.486;9.046;2022-10-18T14:27:08;8.52;;;1.30;;
16837;SDS011;19510;54.486;9.046;2022-10-18T14:29:37;5.25;;;0.80;;
16837;SDS011;19510;54.486;9.046;2022-10-18T14:32:03;5.97;;;1.13;;
16837;SDS011;19510;54.486;9.046;2022-10-18T14:34:34;7.47;;;1.38;;
16837;SDS011;19510;54.486;9.046;2022-10-18T14:36:59;6.22;;;1.02;;
16837;SDS011;19510;54.486;9.046;2022-10-18T14:39:25;6.43;;;1.65;;
16837;SDS011;19510;54.486;9.046;2022-10-18T14:41:56;8.65;;;1.35;;
16837;SDS011;19510;54.486;9.046;2022-10-18T14:44:27;8.80;;;1.30;;
16837;SDS011;19510;54.486;9.046;2022-10-18T14:49:42;5.68;;;1.23;;
16837;SDS011;19510;54.486;9.046;2022-10-18T14:52:10;7.18;;;1.17;;
16837;SDS011;19510;54.486;9.046;2022-10-18T14:54:39;7.60;;;0.98;;
16837;SDS011;19510;54.486;9.046;2022-10-18T14:57:05;4.90;;;1.15;;
16837;SDS011;19510;54.486;9.046;2022-10-18T14:59:43;3.22;;;1.15;;
16837;SDS011;19510;54.486;9.046;2022-10-18T15:02:16;3.58;;;0.90;;
16837;SDS011;19510;54.486;9.046;2022-10-18T15:04:50;6.18;;;0.95;;
16837;SDS011;19510;54.486;9.046;2022-10-18T15:07:20;4.50;;;1.42;;
16837;SDS011;19510;54.486;9.046;2022-10-18T15:09:47;5.75;;;1.77;;
16837;SDS011;19510;54.486;9.046;2022-10-18T15:12:13;4.20;;;0.90;;
16837;SDS011;19510;54.486;9.046;2022-10-18T15:14:40;9.15;;;1.63;;
16837;SDS011;19510;54.486;9.046;2022-10-18T15:17:10;4.72;;;0.90;;
16837;SDS011;19510;54.486;9.046;2022-10-18T15:19:57;4.80;;;1.15;;
16837;SDS011;19510;54.486;9.046;2022-10-18T15:22:25;5.07;;;1.10;;
16837;SDS011;19510;54.486;9.046;2022-10-18T15:27:45;5.75;;;1.35;;
16837;SDS011;19510;54.486;9.046;2022-10-18T15:30:22;5.28;;;0.85;;
16837;SDS011;19510;54.486;9.046;2022-10-18T15:32:53;8.38;;;1.02;;
16837;SDS011;19510;54.486;9.046;2022-10-18T15:35:28;5.82;;;1.65;;
16837;SDS011;19510;54.486;9.046;2022-10-18T15:37:59;7.25;;;1.73;;
16837;SDS011;19510;54.486;9.046;2022-10-18T15:40:37;11.23;;;1.73;;
16837;SDS011;19510;54.486;9.046;2022-10-18T15:43:05;4.60;;;1.30;;
16837;SDS011;19510;54.486;9.046;2022-10-18T15:45:50;11.38;;;1.27;;
16837;SDS011;19510;54.486;9.046;2022-10-18T15:48:29;6.15;;;1.23;;
16837;SDS011;19510;54.486;9.046;2022-10-18T15:51:07;5.63;;;1.55;;
16837;SDS011;19510;54.486;9.046;2022-10-18T15:56:32;14.25;;;1.98;;
16837;SDS011;19510;54.486;9.046;2022-10-18T15:59:11;4.10;;;1.02;;
16837;SDS011;19510;54.486;9.046;2022-10-18T16:01:52;6.50;;;1.40;;
16837;SDS011;19510;54.486;9.046;2022-10-18T16:04:25;4.95;;;1.10;;
16837;SDS011;19510;54.486;9.046;2022-10-18T16:06:56;9.13;;;1.38;;
16837;SDS011;19510;54.486;9.046;2022-10-18T16:09:23;7.45;;;1.50;;
16837;SDS011;19510;54.486;9.046;2022-10-18T16:11:51;9.70;;;1.25;;
16837;SDS011;19510;54.486;9.046;2022-10-18T16:14:17;7.60;;;1.55;;
16837;SDS011;19510;54.486;9.046;2022-10-18T16:16:44;9.00;;;1.58;;
16837;SDS011;19510;54.486;9.046;2022-10-18T16:19:14;11.75;;;1.30;;
16837;SDS011;19510;54.486;9.046;2022-10-18T16:21:46;8.80;;;1.40;;
16837;SDS011;19510;54.486;9.046;2022-10-18T16:24:12;6.45;;;1.20;;
16837;SDS011;19510;54.486;9.046;2022-10-18T16:26:38;3.72;;;1.17;;
16837;SDS011;19510;54.486;9.046;2022-10-18T16:29:04;3.97;;;1.00;;
16837;SDS011;19510;54.486;9.046;2022-10-18T16:31:31;9.00;;;1.35;;
16837;SDS011;19510;54.486;9.046;2022-10-18T16:33:58;11.35;;;1.20;;
16837;SDS011;19510;54.486;9.046;2022-10-18T16:36:25;8.65;;;1.40;;
16837;SDS011;19510;54.486;9.046;2022-10-18T16:38:55;8.65;;;1.52;;
16837;SDS011;19510;54.486;9.046;2022-10-18T16:41:25;2.67;;;0.93;;
16837;SDS011;19510;54.486;9.046;2022-10-18T16:43:51;9.60;;;0.90;;
16837;SDS011;19510;54.486;9.046;2022-10-18T16:46:21;7.82;;;1.60;;
16837;SDS011;19510;54.486;9.046;2022-10-18T16:48:49;5.43;;;1.15;;
16837;SDS011;19510;54.486;9.046;2022-10-18T16:51:18;7.85;;;1.00;;
16837;SDS011;19510;54.486;9.046;2022-10-18T16:53:44;1.73;;;0.77;;
16837;SDS011;19510;54.486;9.046;2022-10-18T16:56:29;8.82;;;1.40;;
16837;SDS011;19510;54.486;9.046;2022-10-18T16:58:56;8.82;;;1.80;;
16837;SDS011;19510;54.486;9.046;2022-10-18T17:01:26;3.55;;;0.88;;
16837;SDS011;19510;54.486;9.046;2022-10-18T17:03:52;5.57;;;1.20;;
16837;SDS011;19510;54.486;9.046;2022-10-18T17:06:22;7.15;;;0.73;;
16837;SDS011;19510;54.486;9.046;2022-10-18T17:08:50;6.25;;;0.90;;
16837;SDS011;19510;54.486;9.046;2022-10-18T17:11:17;4.80;;;0.90;;
16837;SDS011;19510;54.486;9.046;2022-10-18T17:13:43;9.55;;;1.23;;
16837;SDS011;19510;54.486;9.046;2022-10-18T17:18:47;2.05;;;0.90;;
16837;SDS011;19510;54.486;9.046;2022-10-18T17:21:12;4.88;;;1.17;;
16837;SDS011;19510;54.486;9.046;2022-10-18T17:23:38;3.05;;;0.90;;
16837;SDS011;19510;54.486;9.046;2022-10-18T17:26:04;10.77;;;1.30;;
16837;SDS011;19510;54.486;9.046;2022-10-18T17:28:30;8.25;;;1.13;;
16837;SDS011;19510;54.486;9.046;2022-10-18T17:30:56;5.97;;;1.10;;
16837;SDS011;19510;54.486;9.046;2022-10-18T17:33:21;4.53;;;1.60;;
16837;SDS011;19510;54.486;9.046;2022-10-18T17:35:47;7.28;;;1.30;;
16837;SDS011;19510;54.486;9.046;2022-10-18T17:38:16;4.03;;;1.10;;
16837;SDS011;19510;54.486;9.046;2022-10-18T17:40:44;3.22;;;0.68;;
16837;SDS011;19510;54.486;9.046;2022-10-18T17:43:10;4.47;;;0.95;;
16837;SDS011;19510;54.486;9.046;2022-10-18T17:45:44;3.33;;;0.85;;
16837;SDS011;19510;54.486;9.046;2022-10-18T17:48:15;5.07;;;0.80;;
16837;SDS011;19510;54.486;9.046;2022-10-18T17:50:47;6.10;;;0.80;;
16837;SDS011;19510;54.486;9.046;2022-10-18T17:53:22;5.43;;;1.58;;
16837;SDS011;19510;54.486;9.046;2022-10-18T17:56:08;3.85;;;0.70;;
16837;SDS011;19510;54.486;9.046;2022-10-18T17:59:10;3.08;;;1.33;;
16837;SDS011;19510;54.486;9.046;2022-10-18T18:01:39;6.15;;;1.23;;
16837;SDS011;19510;54.486;9.046;2022-10-18T18:11:06;3.35;;;0.80;;
16837;SDS011;19510;54.486;9.046;2022-10-18T18:22:32;7.63;;;1.60;;
16837;SDS011;19510;54.486;9.046;2022-10-18T18:28:22;3.85;;;1.02;;
16837;SDS011;19510;54.486;9.046;2022-10-18T18:34:23;3.10;;;0.80;;
16837;SDS011;19510;54.486;9.046;2022-10-18T18:37:03;3.00;;;0.70;;
16837;SDS011;19510;54.486;9.046;2022-10-18T18:43:41;9.45;;;1.25;;
16837;SDS011;19510;54.486;9.046;2022-10-18T18:46:54;5.93;;;1.15;;
16837;SDS011;19510;54.486;9.046;2022-10-18T18:49:41;3.75;;;0.70;;
16837;SDS011;19510;54.486;9.046;2022-10-18T18:52:51;1.92;;;0.60;;
16837;SDS011;19510;54.486;9.046;2022-10-18T18:56:02;1.27;;;0.70;;
16837;SDS011;19510;54.486;9.046;2022-10-18T18:58:42;3.30;;;0.80;;
16837;SDS011;19510;54.486;9.046;2022-10-18T19:01:12;2.95;;;0.77;;
16837;SDS011;19510;54.486;9.046;2022-10-18T19:03:42;6.00;;;0.90;;
16837;SDS011;19510;54.486;9.046;2022-10-18T19:06:10;3.20;;;0.80;;
16837;SDS011;19510;54.486;9.046;2022-10-18T19:08:38;4.10;;;1.08;;
16837;SDS011;19510;54.486;9.046;2022-10-18T19:11:05;3.55;;;0.70;;
16837;SDS011;19510;54.486;9.046;2022-10-18T19:13:32;9.38;;;1.00;;
16837;SDS011;19510;54.486;9.046;2022-10-18T19:16:18;4.80;;;0.70;;
16837;SDS011;19510;54.486;9.046;2022-10-18T19:18:51;2.33;;;0.80;;
16837;SDS011;19510;54.486;9.046;2022-10-18T19:21:19;6.70;;;0.80;;
16837;SDS011;19510;54.486;9.046;2022-10-18T19:23:45;3.20;;;0.90;;
16837;SDS011;19510;54.486;9.046;2022-10-18T19:26:16;7.68;;;0.90;;
16837;SDS011;19510;54.486;9.046;2022-10-18T19:29:03;4.47;;;0.88;;
16837;SDS011;19510;54.486;9.046;2022-10-18T19:31:34;5.68;;;0.82;;
16837;SDS011;19510;54.486;9.046;2022-10-18T19:34:03;5.03;;;1.00;;
16837;SDS011;19510;54.486;9.046;2022-10-18T19:36:30;5.57;;;0.90;;
16837;SDS011;19510;54.486;9.046;2022-10-18T19:38:56;2.55;;;0.77;;
16837;SDS011;19510;54.486;9.046;2022-10-18T19:41:22;5.80;;;1.10;;
16837;SDS011;19510;54.486;9.046;2022-10-18T19:43:48;6.43;;;1.73;;
16837;SDS011;19510;54.486;9.046;2022-10-18T19:46:14;4.78;;;0.65;;
16837;SDS011;19510;54.486;9.046;2022-10-18T19:48:40;5.80;;;1.55;;
16837;SDS011;19510;54.486;9.046;2022-10-18T19:51:06;7.35;;;1.33;;
16837;SDS011;19510;54.486;9.046;2022-10-18T19:53:32;4.93;;;1.42;;
16837;SDS011;19510;54.486;9.046;2022-10-18T19:56:02;5.57;;;1.10;;
16837;SDS011;19510;54.486;9.046;2022-10-18T19:58:32;6.57;;;1.52;;
16837;SDS011;19510;54.486;9.046;2022-10-18T20:00:57;3.65;;;1.13;;
16837;SDS011;19510;54.486;9.046;2022-10-18T20:20:03;5.57;;;0.85;;
16837;SDS011;19510;54.486;9.046;2022-10-18T20:25:21;3.53;;;1.02;;
16837;SDS011;19510;54.486;9.046;2022-10-18T20:27:47;5.63;;;1.30;;
16837;SDS011;19510;54.486;9.046;2022-10-18T20:30:13;6.00;;;0.95;;
16837;SDS011;19510;54.486;9.046;2022-10-18T20:32:39;8.23;;;1.33;;
16837;SDS011;19510;54.486;9.046;2022-10-18T20:35:05;4.47;;;0.80;;
16837;SDS011;19510;54.486;9.046;2022-10-18T20:37:31;5.75;;;0.80;;
16837;SDS011;19510;54.486;9.046;2022-10-18T20:39:57;4.88;;;0.90;;
16837;SDS011;19510;54.486;9.046;2022-10-18T20:42:24;6.50;;;0.93;;
16837;SDS011;19510;54.486;9.046;2022-10-18T20:44:50;4.82;;;1.05;;
16837;SDS011;19510;54.486;9.046;2022-10-18T21:27:12;6.03;;;0.93;;
16837;SDS011;19510;54.486;9.046;2022-10-18T21:29:38;1.13;;;0.60;;
16837;SDS011;19510;54.486;9.046;2022-10-18T21:32:04;8.15;;;1.13;;
16837;SDS011;19510;54.486;9.046;2022-10-18T21:34:29;6.53;;;0.77;;
16837;SDS011;19510;54.486;9.046;2022-10-18T21:43:46;5.68;;;0.85;;
16837;SDS011;19510;54.486;9.046;2022-10-18T21:46:14;4.18;;;0.60;;
16837;SDS011;19510;54.486;9.046;2022-10-18T21:48:44;3.50;;;0.57;;
16837;SDS011;19510;54.486;9.046;2022-10-18T21:51:12;5.85;;;0.93;;
16837;SDS011;19510;54.486;9.046;2022-10-18T21:53:43;2.05;;;0.60;;
16837;SDS011;19510;54.486;9.046;2022-10-18T21:56:11;5.60;;;0.73;;
16837;SDS011;19510;54.486;9.046;2022-10-18T21:58:38;2.28;;;0.68;;
16837;SDS011;19510;54.486;9.046;2022-10-18T22:01:05;2.25;;;1.00;;
16837;SDS011;19510;54.486;9.046;2022-10-18T22:03:32;5.38;;;0.82;;
16837;SDS011;19510;54.486;9.046;2022-10-18T22:06:02;7.07;;;1.23;;
16837;SDS011;19510;54.486;9.046;2022-10-18T22:08:36;3.30;;;0.73;;
16837;SDS011;19510;54.486;9.046;2022-10-18T22:11:03;6.00;;;1.30;;
16837;SDS011;19510;54.486;9.046;2022-10-18T22:13:31;5.72;;;0.88;;
16837;SDS011;19510;54.486;9.046;2022-10-18T22:16:01;9.02;;;1.00;;
16837;SDS011;19510;54.486;9.046;2022-10-18T22:18:27;8.10;;;1.02;;
16837;SDS011;19510;54.486;9.046;2022-10-18T22:20:54;4.32;;;1.00;;
16837;SDS011;19510;54.486;9.046;2022-10-18T22:23:32;7.55;;;1.48;;
16837;SDS011;19510;54.486;9.046;2022-10-18T22:26:05;8.45;;;0.95;;
16837;SDS011;19510;54.486;9.046;2022-10-18T22:28:36;2.97;;;1.02;;
16837;SDS011;19510;54.486;9.046;2022-10-18T22:31:02;7.47;;;1.10;;
16837;SDS011;19510;54.486;9.046;2022-10-18T22:33:37;9.35;;;1.60;;
16837;SDS011;19510;54.486;9.046;2022-10-18T22:36:02;5.38;;;1.02;;
16837;SDS011;19510;54.486;9.046;2022-10-18T22:38:31;13.38;;;1.25;;
16837;SDS011;19510;54.486;9.046;2022-10-18T22:41:01;5.88;;;1.20;;
16837;SDS011;19510;54.486;9.046;2022-10-18T22:43:28;9.52;;;1.77;;
16837;SDS011;19510;54.486;9.046;2022-10-18T22:45:53;8.90;;;1.27;;
16837;SDS011;19510;54.486;9.046;2022-10-18T22:48:19;5.10;;;1.73;;
16837;SDS011;19510;54.486;9.046;2022-10-18T22:50:47;8.82;;;1.50;;
16837;SDS011;19510;54.486;9.046;2022-10-18T22:53:12;5.38;;;1.15;;
16837;SDS011;19510;54.486;9.046;2022-10-18T22:55:38;6.10;;;1.00;;
16837;SDS011;19510;54.486;9.046;2022-10-18T22:58:04;6.22;;;0.93;;
16837;SDS011;19510;54.486;9.046;2022-10-18T23:00:31;9.07;;;1.13;;
16837;SDS011;19510;54.486;9.046;2022-10-18T23:02:57;7.03;;;1.25;;
16837;SDS011;19510;54.486;9.046;2022-10-18T23:05:23;8.15;;;1.60;;
16837;SDS011;19510;54.486;9.046;2022-10-18T23:07:48;5.15;;;0.95;;
16837;SDS011;19510;54.486;9.046;2022-10-18T23:10:14;6.60;;;0.82;;
16837;SDS011;19510;54.486;9.046;2022-10-18T23:12:40;10.48;;;1.42;;
16837;SDS011;19510;54.486;9.046;2022-10-18T23:15:06;4.63;;;0.95;;
16837;SDS011;19510;54.486;9.046;2022-10-18T23:17:32;6.20;;;1.35;;
16837;SDS011;19510;54.486;9.046;2022-10-18T23:20:00;5.93;;;1.05;;
16837;SDS011;19510;54.486;9.046;2022-10-18T23:22:25;9.02;;;1.63;;
16837;SDS011;19510;54.486;9.046;2022-10-18T23:24:51;10.32;;;1.17;;
16837;SDS011;19510;54.486;9.046;2022-10-18T23:27:16;5.63;;;1.15;;
16837;SDS011;19510;54.486;9.046;2022-10-18T23:29:42;3.78;;;0.90;;
16837;SDS011;19510;54.486;9.046;2022-10-18T23:32:08;3.90;;;0.80;;
16837;SDS011;19510;54.486;9.046;2022-10-18T23:34:33;4.28;;;1.05;;
16837;SDS011;19510;54.486;9.046;2022-10-18T23:36:59;5.78;;;0.70;;
16837;SDS011;19510;54.486;9.046;2022-10-18T23:39:24;13.73;;;1.55;;
16837;SDS011;19510;54.486;9.046;2022-10-18T23:41:50;2.92;;;0.73;;